sensor_id;sensor_type;location;lat;lon;timestamp;pressure;altitude;pressure_sealevel;temperature;humidity
59194;BME280;44967;48.598;15.650;2022-07-22T05:40:27;98489.84;;;27.16;53.40
59194;BME280;44967;48.598;15.650;2022-07-22T05:42:54;98486.25;;;27.25;52.82
59194;BME280;44967;48.598;15.650;2022-07-22T05:45:19;98486.09;;;27.38;53.00
59194;BME280;44967;48.598;15.650;2022-07-22T05:47:46;98495.63;;;27.41;52.69
59194;BME280;44967;48.598;15.650;2022-07-22T05:50:12;98497.31;;;27.47;52.52
59194;BME280;44967;48.598;15.650;2022-07-22T05:52:38;98498.56;;;27.65;52.29
59194;BME280;44967;48.598;15.650;2022-07-22T05:55:05;98494.66;;;27.81;52.13
59194;BME280;44967;48.598;15.650;2022-07-22T05:57:31;98492.91;;;27.93;51.94
59194;BME280;44967;48.598;15.650;2022-07-22T05:59:57;98489.59;;;28.04;52.79
59194;BME280;44967;48.598;15.650;2022-07-22T06:02:22;98494.69;;;28.24;52.13
59194;BME280;44967;48.598;15.650;2022-07-22T06:04:48;98493.41;;;28.35;52.10
59194;BME280;44967;48.598;15.650;2022-07-22T06:07:14;98496.66;;;28.42;51.87
59194;BME280;44967;48.598;15.650;2022-07-22T06:09:40;98501.59;;;28.57;51.31
59194;BME280;44967;48.598;15.650;2022-07-22T06:12:06;98501.47;;;28.76;51.23
59194;BME280;44967;48.598;15.650;2022-07-22T06:14:32;98500.50;;;28.79;50.91
59194;BME280;44967;48.598;15.650;2022-07-22T06:16:57;98502.63;;;28.93;50.85
59194;BME280;44967;48.598;15.650;2022-07-22T06:19:23;98506.41;;;28.90;51.11
59194;BME280;44967;48.598;15.650;2022-07-22T06:21:50;98506.06;;;28.97;50.12
59194;BME280;44967;48.598;15.650;2022-07-22T06:24:15;98508.50;;;29.05;50.26
59194;BME280;44967;48.598;15.650;2022-07-22T06:26:41;98505.81;;;29.10;49.80
59194;BME280;44967;48.598;15.650;2022-07-22T06:29:07;98504.91;;;29.04;50.17
59194;BME280;44967;48.598;15.650;2022-07-22T06:31:33;98503.34;;;29.03;50.27
59194;BME280;44967;48.598;15.650;2022-07-22T06:33:59;98508.38;;;28.99;50.40
59194;BME280;44967;48.598;15.650;2022-07-22T06:36:24;98506.53;;;28.96;50.61
59194;BME280;44967;48.598;15.650;2022-07-22T06:38:50;98505.00;;;29.10;50.01
59194;BME280;44967;48.598;15.650;2022-07-22T06:41:15;98501.53;;;29.15;50.78
59194;BME280;44967;48.598;15.650;2022-07-22T06:43:45;98504.16;;;29.04;51.94
59194;BME280;44967;48.598;15.650;2022-07-22T06:46:11;98502.91;;;29.20;51.00
59194;BME280;44967;48.598;15.650;2022-07-22T06:48:36;98499.38;;;29.34;51.26
59194;BME280;44967;48.598;15.650;2022-07-22T06:51:02;98490.56;;;29.41;51.04
59194;BME280;44967;48.598;15.650;2022-07-22T06:53:28;98496.91;;;29.51;50.80
59194;BME280;44967;48.598;15.650;2022-07-22T06:55:54;98496.72;;;29.70;50.62
59194;BME280;44967;48.598;15.650;2022-07-22T06:58:20;98498.97;;;29.81;50.33
59194;BME280;44967;48.598;15.650;2022-07-22T07:00:45;98498.69;;;29.79;50.15
59194;BME280;44967;48.598;15.650;2022-07-22T07:03:11;98490.50;;;29.81;50.57
59194;BME280;44967;48.598;15.650;2022-07-22T07:05:37;98490.13;;;29.88;49.75
59194;BME280;44967;48.598;15.650;2022-07-22T07:08:03;98493.31;;;29.96;49.39
59194;BME280;44967;48.598;15.650;2022-07-22T07:10:29;98491.38;;;30.02;49.90
59194;BME280;44967;48.598;15.650;2022-07-22T07:12:56;98482.66;;;30.15;48.91
59194;BME280;44967;48.598;15.650;2022-07-22T07:15:23;98481.50;;;30.22;48.54
59194;BME280;44967;48.598;15.650;2022-07-22T07:17:49;98486.41;;;30.63;48.03
59194;BME280;44967;48.598;15.650;2022-07-22T07:20:15;98481.53;;;31.20;47.68
59194;BME280;44967;48.598;15.650;2022-07-22T07:22:41;98478.09;;;31.84;46.06
59194;BME280;44967;48.598;15.650;2022-07-22T07:25:08;98482.03;;;32.24;43.54
59194;BME280;44967;48.598;15.650;2022-07-22T07:27:34;98485.91;;;33.26;41.55
59194;BME280;44967;48.598;15.650;2022-07-22T07:30:00;98475.72;;;34.48;39.63
59194;BME280;44967;48.598;15.650;2022-07-22T07:32:25;98469.47;;;36.04;36.98
59194;BME280;44967;48.598;15.650;2022-07-22T07:34:51;98478.84;;;36.80;35.68
59194;BME280;44967;48.598;15.650;2022-07-22T07:37:17;98466.13;;;37.63;33.88
59194;BME280;44967;48.598;15.650;2022-07-22T07:39:42;98473.09;;;38.27;31.58
59194;BME280;44967;48.598;15.650;2022-07-22T07:42:08;98464.97;;;38.45;31.16
59194;BME280;44967;48.598;15.650;2022-07-22T07:44:34;98460.69;;;39.06;30.61
59194;BME280;44967;48.598;15.650;2022-07-22T07:46:59;98456.88;;;39.94;28.71
59194;BME280;44967;48.598;15.650;2022-07-22T07:49:25;98455.44;;;40.09;29.58
59194;BME280;44967;48.598;15.650;2022-07-22T07:51:51;98451.19;;;40.81;27.96
59194;BME280;44967;48.598;15.650;2022-07-22T07:54:17;98449.28;;;40.84;27.48
59194;BME280;44967;48.598;15.650;2022-07-22T07:56:43;98441.63;;;40.50;27.18
59194;BME280;44967;48.598;15.650;2022-07-22T07:59:08;98449.75;;;40.67;28.22
59194;BME280;44967;48.598;15.650;2022-07-22T08:01:34;98446.72;;;40.72;27.32
59194;BME280;44967;48.598;15.650;2022-07-22T08:04:00;98448.16;;;40.95;27.36
59194;BME280;44967;48.598;15.650;2022-07-22T08:06:26;98439.31;;;41.30;26.20
59194;BME280;44967;48.598;15.650;2022-07-22T08:08:51;98450.13;;;41.76;25.92
59194;BME280;44967;48.598;15.650;2022-07-22T08:11:17;98453.16;;;40.65;26.90
59194;BME280;44967;48.598;15.650;2022-07-22T08:13:43;98442.44;;;40.58;26.89
59194;BME280;44967;48.598;15.650;2022-07-22T08:16:08;98451.81;;;40.66;26.80
59194;BME280;44967;48.598;15.650;2022-07-22T08:18:34;98450.38;;;38.89;28.94
59194;BME280;44967;48.598;15.650;2022-07-22T08:20:59;98451.56;;;39.42;28.22
59194;BME280;44967;48.598;15.650;2022-07-22T08:23:25;98443.25;;;39.87;27.70
59194;BME280;44967;48.598;15.650;2022-07-22T08:25:51;98440.22;;;40.35;26.93
59194;BME280;44967;48.598;15.650;2022-07-22T08:28:17;98438.31;;;41.11;26.25
59194;BME280;44967;48.598;15.650;2022-07-22T08:30:43;98444.41;;;41.08;26.42
59194;BME280;44967;48.598;15.650;2022-07-22T08:33:09;98437.66;;;41.58;25.42
59194;BME280;44967;48.598;15.650;2022-07-22T08:35:34;98445.72;;;41.67;25.89
59194;BME280;44967;48.598;15.650;2022-07-22T08:38:00;98449.16;;;41.81;25.34
59194;BME280;44967;48.598;15.650;2022-07-22T08:40:26;98449.53;;;41.02;24.74
59194;BME280;44967;48.598;15.650;2022-07-22T08:42:52;98444.13;;;41.35;25.57
59194;BME280;44967;48.598;15.650;2022-07-22T08:45:18;98440.59;;;40.68;25.58
59194;BME280;44967;48.598;15.650;2022-07-22T08:47:50;98444.78;;;41.04;25.34
59194;BME280;44967;48.598;15.650;2022-07-22T08:50:16;98438.69;;;41.16;24.73
59194;BME280;44967;48.598;15.650;2022-07-22T08:52:42;98433.81;;;41.47;24.38
59194;BME280;44967;48.598;15.650;2022-07-22T08:55:09;98433.88;;;41.78;23.96
59194;BME280;44967;48.598;15.650;2022-07-22T08:57:35;98436.09;;;41.41;23.14
59194;BME280;44967;48.598;15.650;2022-07-22T09:00:10;98435.00;;;41.91;22.92
59194;BME280;44967;48.598;15.650;2022-07-22T09:02:38;98433.06;;;41.62;23.66
59194;BME280;44967;48.598;15.650;2022-07-22T09:05:08;98422.72;;;41.36;23.40
59194;BME280;44967;48.598;15.650;2022-07-22T09:07:36;98424.28;;;41.60;23.15
59194;BME280;44967;48.598;15.650;2022-07-22T09:10:14;98435.44;;;41.11;22.81
59194;BME280;44967;48.598;15.650;2022-07-22T09:13:00;98425.84;;;40.56;22.54
59194;BME280;44967;48.598;15.650;2022-07-22T09:15:30;98435.16;;;40.86;22.97
59194;BME280;44967;48.598;15.650;2022-07-22T09:17:58;98425.66;;;41.67;22.56
59194;BME280;44967;48.598;15.650;2022-07-22T09:20:24;98423.13;;;41.40;22.25
59194;BME280;44967;48.598;15.650;2022-07-22T09:22:50;98427.16;;;41.60;22.79
59194;BME280;44967;48.598;15.650;2022-07-22T09:25:28;98422.94;;;41.61;23.23
59194;BME280;44967;48.598;15.650;2022-07-22T09:28:16;98416.28;;;41.66;22.47
59194;BME280;44967;48.598;15.650;2022-07-22T09:30:47;98415.88;;;41.55;22.03
59194;BME280;44967;48.598;15.650;2022-07-22T09:33:15;98420.88;;;40.94;22.41
59194;BME280;44967;48.598;15.650;2022-07-22T09:35:41;98419.28;;;41.37;21.94
59194;BME280;44967;48.598;15.650;2022-07-22T09:38:09;98415.06;;;41.23;22.32
59194;BME280;44967;48.598;15.650;2022-07-22T09:40:37;98420.59;;;40.76;21.89
59194;BME280;44967;48.598;15.650;2022-07-22T09:43:05;98421.69;;;40.65;22.10
59194;BME280;44967;48.598;15.650;2022-07-22T09:45:34;98414.97;;;40.55;22.36
59194;BME280;44967;48.598;15.650;2022-07-22T09:48:01;98410.66;;;40.77;21.96
59194;BME280;44967;48.598;15.650;2022-07-22T09:50:31;98400.25;;;40.95;21.56
59194;BME280;44967;48.598;15.650;2022-07-22T09:52:59;98409.50;;;40.72;22.27
59194;BME280;44967;48.598;15.650;2022-07-22T09:55:27;98404.41;;;40.42;21.98
59194;BME280;44967;48.598;15.650;2022-07-22T09:57:55;98399.50;;;40.50;22.21
59194;BME280;44967;48.598;15.650;2022-07-22T10:00:23;98397.50;;;40.74;21.60
59194;BME280;44967;48.598;15.650;2022-07-22T10:02:50;98390.03;;;40.05;21.79
59194;BME280;44967;48.598;15.650;2022-07-22T10:05:24;98389.91;;;40.11;21.43
59194;BME280;44967;48.598;15.650;2022-07-22T10:07:51;98391.25;;;39.88;21.78
59194;BME280;44967;48.598;15.650;2022-07-22T10:10:23;98385.75;;;39.90;20.93
59194;BME280;44967;48.598;15.650;2022-07-22T10:12:50;98381.81;;;40.30;21.69
59194;BME280;44967;48.598;15.650;2022-07-22T10:15:16;98375.66;;;40.55;20.81
59194;BME280;44967;48.598;15.650;2022-07-22T10:17:46;98380.03;;;40.49;21.24
59194;BME280;44967;48.598;15.650;2022-07-22T10:20:16;98376.88;;;40.76;21.03
59194;BME280;44967;48.598;15.650;2022-07-22T10:25:09;98379.84;;;40.54;20.75
59194;BME280;44967;48.598;15.650;2022-07-22T10:27:55;98384.09;;;40.61;20.60
59194;BME280;44967;48.598;15.650;2022-07-22T10:30:30;98370.50;;;40.54;20.13
59194;BME280;44967;48.598;15.650;2022-07-22T10:33:05;98370.09;;;40.21;20.96
59194;BME280;44967;48.598;15.650;2022-07-22T10:35:32;98366.25;;;40.47;20.92
59194;BME280;44967;48.598;15.650;2022-07-22T10:38:04;98364.19;;;40.48;22.11
59194;BME280;44967;48.598;15.650;2022-07-22T10:40:44;98363.03;;;40.51;21.29
59194;BME280;44967;48.598;15.650;2022-07-22T10:43:12;98360.78;;;40.20;19.89
59194;BME280;44967;48.598;15.650;2022-07-22T10:45:52;98350.53;;;40.33;21.47
59194;BME280;44967;48.598;15.650;2022-07-22T10:48:45;98347.66;;;40.33;20.18
59194;BME280;44967;48.598;15.650;2022-07-22T11:01:26;98345.59;;;40.33;21.47
59194;BME280;44967;48.598;15.650;2022-07-22T11:03:53;98340.75;;;40.20;20.93
59194;BME280;44967;48.598;15.650;2022-07-22T11:06:28;98333.81;;;40.08;22.29
59194;BME280;44967;48.598;15.650;2022-07-22T11:08:57;98339.09;;;40.33;22.19
59194;BME280;44967;48.598;15.650;2022-07-22T11:11:41;98340.50;;;40.84;21.14
59194;BME280;44967;48.598;15.650;2022-07-22T11:16:41;98330.44;;;40.54;19.88
59194;BME280;44967;48.598;15.650;2022-07-22T11:19:07;98330.59;;;40.11;20.98
59194;BME280;44967;48.598;15.650;2022-07-22T11:21:34;98318.59;;;40.50;20.94
59194;BME280;44967;48.598;15.650;2022-07-22T11:24:03;98317.59;;;40.92;19.71
59194;BME280;44967;48.598;15.650;2022-07-22T11:26:42;98323.91;;;40.98;20.41
59194;BME280;44967;48.598;15.650;2022-07-22T11:29:10;98313.41;;;40.93;20.22
59194;BME280;44967;48.598;15.650;2022-07-22T11:31:37;98306.56;;;40.96;20.57
59194;BME280;44967;48.598;15.650;2022-07-22T11:34:08;98307.97;;;40.66;19.31
59194;BME280;44967;48.598;15.650;2022-07-22T11:36:37;98301.72;;;40.30;20.15
59194;BME280;44967;48.598;15.650;2022-07-22T11:39:04;98303.41;;;40.70;20.82
59194;BME280;44967;48.598;15.650;2022-07-22T11:41:30;98301.38;;;40.94;21.03
59194;BME280;44967;48.598;15.650;2022-07-22T11:43:57;98304.44;;;40.89;20.78
59194;BME280;44967;48.598;15.650;2022-07-22T11:46:23;98299.47;;;40.81;20.16
59194;BME280;44967;48.598;15.650;2022-07-22T11:48:52;98301.03;;;40.46;20.27
59194;BME280;44967;48.598;15.650;2022-07-22T11:51:17;98287.72;;;40.56;20.26
59194;BME280;44967;48.598;15.650;2022-07-22T11:53:43;98298.91;;;40.38;20.11
59194;BME280;44967;48.598;15.650;2022-07-22T11:56:10;98287.31;;;40.52;20.29
59194;BME280;44967;48.598;15.650;2022-07-22T11:58:47;98288.72;;;40.22;20.37
59194;BME280;44967;48.598;15.650;2022-07-22T12:01:17;98282.66;;;40.33;20.74
59194;BME280;44967;48.598;15.650;2022-07-22T12:03:58;98283.81;;;40.90;20.09
59194;BME280;44967;48.598;15.650;2022-07-22T12:06:26;98289.06;;;40.63;20.27
59194;BME280;44967;48.598;15.650;2022-07-22T12:09:02;98272.03;;;40.04;20.34
59194;BME280;44967;48.598;15.650;2022-07-22T12:11:29;98267.91;;;40.21;20.91
59194;BME280;44967;48.598;15.650;2022-07-22T12:13:55;98273.78;;;40.44;21.16
59194;BME280;44967;48.598;15.650;2022-07-22T12:16:26;98268.81;;;40.08;20.81
59194;BME280;44967;48.598;15.650;2022-07-22T12:19:00;98259.00;;;40.33;21.21
59194;BME280;44967;48.598;15.650;2022-07-22T12:21:31;98259.25;;;40.35;20.53
59194;BME280;44967;48.598;15.650;2022-07-22T12:26:48;98249.81;;;40.87;20.61
59194;BME280;44967;48.598;15.650;2022-07-22T12:29:22;98260.59;;;40.41;21.42
59194;BME280;44967;48.598;15.650;2022-07-22T12:34:16;98253.69;;;39.63;21.65
59194;BME280;44967;48.598;15.650;2022-07-22T12:36:46;98243.34;;;40.26;21.40
59194;BME280;44967;48.598;15.650;2022-07-22T12:39:17;98234.97;;;40.80;21.34
59194;BME280;44967;48.598;15.650;2022-07-22T12:41:51;98236.69;;;41.15;21.31
59194;BME280;44967;48.598;15.650;2022-07-22T12:44:22;98239.75;;;41.24;20.94
59194;BME280;44967;48.598;15.650;2022-07-22T12:46:50;98243.53;;;41.04;20.51
59194;BME280;44967;48.598;15.650;2022-07-22T12:49:17;98239.91;;;41.11;20.70
59194;BME280;44967;48.598;15.650;2022-07-22T12:54:32;98230.97;;;41.22;20.50
59194;BME280;44967;48.598;15.650;2022-07-22T12:56:58;98226.78;;;41.23;20.25
59194;BME280;44967;48.598;15.650;2022-07-22T12:59:24;98227.69;;;41.10;21.05
59194;BME280;44967;48.598;15.650;2022-07-22T13:01:49;98224.47;;;41.06;20.40
59194;BME280;44967;48.598;15.650;2022-07-22T13:04:15;98225.81;;;41.05;21.02
59194;BME280;44967;48.598;15.650;2022-07-22T13:06:40;98222.16;;;41.05;21.30
59194;BME280;44967;48.598;15.650;2022-07-22T13:09:06;98216.25;;;40.95;20.58
59194;BME280;44967;48.598;15.650;2022-07-22T13:11:33;98204.97;;;41.05;21.37
59194;BME280;44967;48.598;15.650;2022-07-22T13:14:05;98208.03;;;41.38;20.87
59194;BME280;44967;48.598;15.650;2022-07-22T13:16:32;98201.50;;;41.69;20.25
59194;BME280;44967;48.598;15.650;2022-07-22T13:18:58;98212.75;;;41.74;20.19
59194;BME280;44967;48.598;15.650;2022-07-22T13:21:24;98208.75;;;41.70;20.54
59194;BME280;44967;48.598;15.650;2022-07-22T13:23:49;98209.69;;;41.64;20.91
59194;BME280;44967;48.598;15.650;2022-07-22T13:26:15;98203.81;;;41.55;20.64
59194;BME280;44967;48.598;15.650;2022-07-22T13:28:41;98206.47;;;41.68;19.98
59194;BME280;44967;48.598;15.650;2022-07-22T13:31:08;98208.03;;;41.46;19.81
59194;BME280;44967;48.598;15.650;2022-07-22T13:33:34;98199.25;;;41.36;19.95
59194;BME280;44967;48.598;15.650;2022-07-22T13:36:00;98195.25;;;41.31;19.99
59194;BME280;44967;48.598;15.650;2022-07-22T13:38:26;98198.09;;;41.47;20.75
59194;BME280;44967;48.598;15.650;2022-07-22T13:40:51;98195.53;;;41.74;19.99
59194;BME280;44967;48.598;15.650;2022-07-22T13:43:23;98192.13;;;41.76;20.48
59194;BME280;44967;48.598;15.650;2022-07-22T13:45:49;98182.56;;;41.73;20.48
59194;BME280;44967;48.598;15.650;2022-07-22T13:48:16;98179.78;;;41.99;19.94
59194;BME280;44967;48.598;15.650;2022-07-22T13:50:46;98170.00;;;42.43;19.67
59194;BME280;44967;48.598;15.650;2022-07-22T13:53:11;98168.06;;;42.12;19.39
59194;BME280;44967;48.598;15.650;2022-07-22T13:55:38;98174.81;;;41.19;19.99
59194;BME280;44967;48.598;15.650;2022-07-22T13:58:04;98161.53;;;41.78;20.19
59194;BME280;44967;48.598;15.650;2022-07-22T14:00:30;98164.31;;;42.35;19.47
59194;BME280;44967;48.598;15.650;2022-07-22T14:02:56;98157.66;;;42.83;19.22
59194;BME280;44967;48.598;15.650;2022-07-22T14:05:21;98151.66;;;42.97;19.44
59194;BME280;44967;48.598;15.650;2022-07-22T14:07:47;98151.94;;;42.58;19.43
59194;BME280;44967;48.598;15.650;2022-07-22T14:10:13;98153.00;;;42.96;19.41
59194;BME280;44967;48.598;15.650;2022-07-22T14:12:40;98147.53;;;43.08;18.59
59194;BME280;44967;48.598;15.650;2022-07-22T14:15:06;98150.84;;;43.39;18.82
59194;BME280;44967;48.598;15.650;2022-07-22T14:17:33;98147.03;;;43.37;18.63
59194;BME280;44967;48.598;15.650;2022-07-22T14:19:59;98147.13;;;43.47;18.12
59194;BME280;44967;48.598;15.650;2022-07-22T14:22:26;98139.84;;;43.46;18.57
59194;BME280;44967;48.598;15.650;2022-07-22T14:24:51;98139.31;;;43.22;18.97
59194;BME280;44967;48.598;15.650;2022-07-22T14:27:17;98141.25;;;43.19;18.73
59194;BME280;44967;48.598;15.650;2022-07-22T14:29:43;98132.59;;;43.45;19.13
59194;BME280;44967;48.598;15.650;2022-07-22T14:32:08;98140.00;;;43.30;18.53
59194;BME280;44967;48.598;15.650;2022-07-22T14:34:34;98135.47;;;43.45;18.78
59194;BME280;44967;48.598;15.650;2022-07-22T14:36:59;98125.97;;;43.16;18.22
59194;BME280;44967;48.598;15.650;2022-07-22T14:39:25;98121.09;;;43.45;18.64
59194;BME280;44967;48.598;15.650;2022-07-22T14:41:51;98125.88;;;43.60;18.58
59194;BME280;44967;48.598;15.650;2022-07-22T14:44:16;98128.16;;;42.83;18.78
59194;BME280;44967;48.598;15.650;2022-07-22T14:46:43;98116.84;;;42.42;18.89
59194;BME280;44967;48.598;15.650;2022-07-22T14:49:08;98117.97;;;42.13;19.31
59194;BME280;44967;48.598;15.650;2022-07-22T14:51:34;98119.81;;;42.77;19.48
59194;BME280;44967;48.598;15.650;2022-07-22T14:54:00;98119.91;;;43.12;18.82
59194;BME280;44967;48.598;15.650;2022-07-22T14:56:26;98107.66;;;42.86;19.23
59194;BME280;44967;48.598;15.650;2022-07-22T14:58:51;98103.41;;;42.95;18.67
59194;BME280;44967;48.598;15.650;2022-07-22T15:01:17;98108.47;;;42.61;18.91
59194;BME280;44967;48.598;15.650;2022-07-22T15:03:43;98103.66;;;43.25;18.76
59194;BME280;44967;48.598;15.650;2022-07-22T15:06:09;98106.81;;;43.54;18.93
59194;BME280;44967;48.598;15.650;2022-07-22T15:08:36;98101.97;;;43.57;18.66
59194;BME280;44967;48.598;15.650;2022-07-22T15:11:02;98100.78;;;43.60;17.90
59194;BME280;44967;48.598;15.650;2022-07-22T15:13:28;98104.69;;;43.55;18.72
59194;BME280;44967;48.598;15.650;2022-07-22T15:15:55;98099.00;;;43.65;18.64
59194;BME280;44967;48.598;15.650;2022-07-22T15:18:21;98094.50;;;43.89;18.46
59194;BME280;44967;48.598;15.650;2022-07-22T15:20:47;98094.31;;;43.87;18.20
59194;BME280;44967;48.598;15.650;2022-07-22T15:23:13;98087.75;;;44.04;18.14
59194;BME280;44967;48.598;15.650;2022-07-22T15:25:39;98093.94;;;44.01;18.35
59194;BME280;44967;48.598;15.650;2022-07-22T15:28:05;98083.34;;;43.76;18.56
59194;BME280;44967;48.598;15.650;2022-07-22T15:30:32;98085.44;;;43.75;18.84
59194;BME280;44967;48.598;15.650;2022-07-22T15:32:58;98093.09;;;43.63;18.25
59194;BME280;44967;48.598;15.650;2022-07-22T15:35:24;98090.72;;;43.51;18.13
59194;BME280;44967;48.598;15.650;2022-07-22T15:37:49;98083.63;;;43.70;18.03
59194;BME280;44967;48.598;15.650;2022-07-22T15:40:15;98083.28;;;43.66;18.78
59194;BME280;44967;48.598;15.650;2022-07-22T15:42:42;98077.88;;;43.70;18.99
59194;BME280;44967;48.598;15.650;2022-07-22T15:45:09;98075.66;;;43.78;19.01
59194;BME280;44967;48.598;15.650;2022-07-22T15:47:35;98077.78;;;43.78;18.31
59194;BME280;44967;48.598;15.650;2022-07-22T15:50:00;98077.25;;;43.71;18.17
59194;BME280;44967;48.598;15.650;2022-07-22T15:52:26;98076.59;;;43.63;18.20
59194;BME280;44967;48.598;15.650;2022-07-22T15:54:51;98083.38;;;43.58;18.54
59194;BME280;44967;48.598;15.650;2022-07-22T15:57:18;98069.53;;;43.47;18.36
59194;BME280;44967;48.598;15.650;2022-07-22T16:00:03;98063.13;;;43.21;18.73
59194;BME280;44967;48.598;15.650;2022-07-22T16:02:29;98065.81;;;43.19;18.86
59194;BME280;44967;48.598;15.650;2022-07-22T16:04:54;98066.06;;;43.48;18.56
59194;BME280;44967;48.598;15.650;2022-07-22T16:07:20;98057.41;;;43.66;18.54
59194;BME280;44967;48.598;15.650;2022-07-22T16:09:45;98064.72;;;43.49;18.40
59194;BME280;44967;48.598;15.650;2022-07-22T16:12:11;98055.59;;;43.70;18.47
59194;BME280;44967;48.598;15.650;2022-07-22T16:14:36;98050.09;;;43.82;18.35
59194;BME280;44967;48.598;15.650;2022-07-22T16:17:02;98059.41;;;43.73;17.93
59194;BME280;44967;48.598;15.650;2022-07-22T16:19:27;98053.47;;;43.89;18.75
59194;BME280;44967;48.598;15.650;2022-07-22T16:21:53;98053.59;;;43.81;18.57
59194;BME280;44967;48.598;15.650;2022-07-22T16:24:19;98056.97;;;43.97;18.73
59194;BME280;44967;48.598;15.650;2022-07-22T16:26:44;98055.22;;;44.11;18.08
59194;BME280;44967;48.598;15.650;2022-07-22T16:29:10;98050.72;;;43.63;18.35
59194;BME280;44967;48.598;15.650;2022-07-22T16:31:36;98053.41;;;43.79;18.68
59194;BME280;44967;48.598;15.650;2022-07-22T16:34:02;98052.06;;;43.62;18.59
59194;BME280;44967;48.598;15.650;2022-07-22T16:36:27;98048.69;;;43.74;18.28
59194;BME280;44967;48.598;15.650;2022-07-22T16:38:55;98046.00;;;43.58;18.74
59194;BME280;44967;48.598;15.650;2022-07-22T16:41:20;98046.09;;;43.50;18.92
59194;BME280;44967;48.598;15.650;2022-07-22T16:43:46;98050.91;;;43.65;19.04
59194;BME280;44967;48.598;15.650;2022-07-22T16:46:12;98049.19;;;43.62;18.59
59194;BME280;44967;48.598;15.650;2022-07-22T16:48:38;98043.94;;;43.68;19.04
59194;BME280;44967;48.598;15.650;2022-07-22T16:51:04;98043.09;;;43.76;18.73
59194;BME280;44967;48.598;15.650;2022-07-22T16:53:29;98037.84;;;43.82;18.23
59194;BME280;44967;48.598;15.650;2022-07-22T16:55:56;98040.06;;;44.01;18.18
59194;BME280;44967;48.598;15.650;2022-07-22T16:58:22;98031.66;;;43.58;19.79
59194;BME280;44967;48.598;15.650;2022-07-22T17:00:47;98032.97;;;43.57;18.92
59194;BME280;44967;48.598;15.650;2022-07-22T17:03:13;98033.78;;;43.85;19.23
59194;BME280;44967;48.598;15.650;2022-07-22T17:05:39;98034.78;;;43.80;19.53
59194;BME280;44967;48.598;15.650;2022-07-22T17:08:04;98029.03;;;43.80;21.12
59194;BME280;44967;48.598;15.650;2022-07-22T17:10:30;98027.50;;;43.51;19.88
59194;BME280;44967;48.598;15.650;2022-07-22T17:12:56;98021.97;;;43.18;20.57
59194;BME280;44967;48.598;15.650;2022-07-22T17:15:21;98033.28;;;42.98;21.38
59194;BME280;44967;48.598;15.650;2022-07-22T17:17:47;98029.03;;;42.64;22.22
59194;BME280;44967;48.598;15.650;2022-07-22T17:20:13;98032.44;;;42.19;22.52
59194;BME280;44967;48.598;15.650;2022-07-22T17:22:40;98035.56;;;41.80;23.19
59194;BME280;44967;48.598;15.650;2022-07-22T17:25:06;98024.31;;;41.34;22.98
59194;BME280;44967;48.598;15.650;2022-07-22T17:27:33;98040.06;;;40.94;23.34
59194;BME280;44967;48.598;15.650;2022-07-22T17:30:00;98041.47;;;40.54;23.98
59194;BME280;44967;48.598;15.650;2022-07-22T17:32:25;98035.94;;;40.40;24.15
59194;BME280;44967;48.598;15.650;2022-07-22T17:34:51;98039.13;;;39.98;25.58
59194;BME280;44967;48.598;15.650;2022-07-22T17:37:17;98031.00;;;39.65;25.68
59194;BME280;44967;48.598;15.650;2022-07-22T17:39:43;98039.34;;;39.55;25.66
59194;BME280;44967;48.598;15.650;2022-07-22T17:42:09;98038.69;;;39.33;25.71
59194;BME280;44967;48.598;15.650;2022-07-22T17:44:35;98034.41;;;39.19;26.28
59194;BME280;44967;48.598;15.650;2022-07-22T17:47:01;98036.72;;;38.91;26.87
59194;BME280;44967;48.598;15.650;2022-07-22T17:49:26;98028.09;;;38.54;27.33
59194;BME280;44967;48.598;15.650;2022-07-22T17:51:52;98031.16;;;38.35;27.71
59194;BME280;44967;48.598;15.650;2022-07-22T17:54:21;98038.16;;;38.26;27.93
59194;BME280;44967;48.598;15.650;2022-07-22T17:56:47;98028.81;;;38.05;29.76
59194;BME280;44967;48.598;15.650;2022-07-22T17:59:13;98025.00;;;37.89;30.63
59194;BME280;44967;48.598;15.650;2022-07-22T18:01:39;98019.78;;;37.58;30.16
59194;BME280;44967;48.598;15.650;2022-07-22T18:04:05;98028.13;;;37.29;29.05
59194;BME280;44967;48.598;15.650;2022-07-22T18:06:31;98026.59;;;37.14;29.38
59194;BME280;44967;48.598;15.650;2022-07-22T18:08:57;98017.31;;;37.14;29.98
59194;BME280;44967;48.598;15.650;2022-07-22T18:11:23;98026.59;;;37.01;31.04
59194;BME280;44967;48.598;15.650;2022-07-22T18:13:49;98025.38;;;36.96;31.75
59194;BME280;44967;48.598;15.650;2022-07-22T18:16:15;98018.91;;;36.69;32.76
59194;BME280;44967;48.598;15.650;2022-07-22T18:18:44;98015.06;;;36.53;32.70
59194;BME280;44967;48.598;15.650;2022-07-22T18:21:11;98023.78;;;36.41;32.51
59194;BME280;44967;48.598;15.650;2022-07-22T18:23:37;98015.28;;;36.08;33.32
59194;BME280;44967;48.598;15.650;2022-07-22T18:26:03;98025.41;;;36.04;33.08
59194;BME280;44967;48.598;15.650;2022-07-22T18:28:30;98024.59;;;35.90;32.74
59194;BME280;44967;48.598;15.650;2022-07-22T18:30:57;98029.22;;;35.54;31.87
59194;BME280;44967;48.598;15.650;2022-07-22T18:33:23;98027.13;;;35.36;33.84
59194;BME280;44967;48.598;15.650;2022-07-22T18:35:49;98026.06;;;35.39;34.64
59194;BME280;44967;48.598;15.650;2022-07-22T18:38:15;98021.69;;;35.19;34.87
59194;BME280;44967;48.598;15.650;2022-07-22T18:40:40;98017.78;;;34.97;34.26
59194;BME280;44967;48.598;15.650;2022-07-22T18:43:06;98018.84;;;34.94;34.42
59194;BME280;44967;48.598;15.650;2022-07-22T18:45:32;98024.09;;;34.84;34.52
59194;BME280;44967;48.598;15.650;2022-07-22T18:47:57;98024.50;;;34.69;35.62
59194;BME280;44967;48.598;15.650;2022-07-22T18:50:23;98023.50;;;34.36;35.47
59194;BME280;44967;48.598;15.650;2022-07-22T18:52:52;98024.00;;;34.40;35.17